Time;durP1;ratioP1;P1;durP2;ratioP2;P2;SDS_P1;SDS_P2;PMS_P1;PMS_P2;Temp;Humidity;BMP_temperature;BMP_pressure;BME280_temperature;BME280_humidity;BME280_pressure;Samples;Min_cycle;Max_cycle;Signal;HPM_P1;HPM_P2
2022/03/12 00:01:02;;;;;;;16.92;10.38;;;;;;;-139.48;100.00;61774.03;5053169;28;20106;-73
2022/03/12 00:03:47;;;;;;;19.23;10.70;;;;;;;-139.48;100.00;61774.03;5038119;28;20052;-74
2022/03/12 00:06:32;;;;;;;22.83;10.68;;;;;;;-139.48;100.00;61774.03;5053212;28;20071;-74
2022/03/12 00:09:16;;;;;;;17.33;10.60;;;;;;;-139.48;100.00;61774.03;5052990;28;20083;-73
2022/03/12 00:12:00;;;;;;;20.55;10.90;;;;;;;-139.48;100.00;61774.03;5037913;28;20463;-74
2022/03/12 00:14:48;;;;;;;19.83;11.38;;;;;;;-139.48;100.00;61774.03;5037914;28;20107;-73
2022/03/12 00:17:32;;;;;;;17.83;11.02;;;;;;;-139.48;100.00;61774.03;5038682;28;20048;-72
2022/03/12 00:20:19;;;;;;;20.60;11.50;;;;;;;-139.48;100.00;61774.03;5052640;28;20186;-73
2022/03/12 00:23:11;;;;;;;18.88;11.15;;;;;;;-139.48;100.00;61774.03;5038041;28;20094;-73
2022/03/12 00:25:55;;;;;;;21.83;11.50;;;;;;;-139.48;100.00;61774.03;5038733;28;20544;-72
2022/03/12 00:28:40;;;;;;;24.38;12.48;;;;;;;-139.48;100.00;61774.03;5053038;28;20059;-73
2022/03/12 00:31:24;;;;;;;19.10;11.70;;;;;;;-139.48;100.00;61774.03;5037526;28;20135;-72
2022/03/12 00:34:08;;;;;;;23.65;11.52;;;;;;;-139.48;100.00;61774.03;5037657;28;20056;-74
2022/03/12 00:36:52;;;;;;;16.77;10.15;;;;;;;-139.48;100.00;61774.03;5052399;28;20109;-73
2022/03/12 00:39:36;;;;;;;16.50;9.85;;;;;;;-139.48;100.00;61774.03;5052867;28;20140;-73
2022/03/12 00:42:20;;;;;;;21.17;10.80;;;;;;;-139.48;100.00;61774.03;5052609;28;20102;-74
2022/03/12 00:45:04;;;;;;;17.92;10.25;;;;;;;-139.48;100.00;61774.03;5023585;28;20468;-73
2022/03/12 00:47:50;;;;;;;20.13;10.55;;;;;;;-139.48;100.00;61774.03;5052370;28;20496;-71
2022/03/12 00:50:34;;;;;;;16.02;10.02;;;;;;;-139.48;100.00;61774.03;5037879;28;20051;-73
2022/03/12 00:53:18;;;;;;;18.38;9.55;;;;;;;-139.48;100.00;61774.03;5037610;28;20106;-74
2022/03/12 00:56:03;;;;;;;19.27;9.95;;;;;;;-139.48;100.00;61774.03;5037339;28;20051;-73
2022/03/12 00:58:48;;;;;;;15.57;9.48;;;;;;;-139.48;100.00;61774.03;5037121;28;20102;-74
2022/03/12 01:01:32;;;;;;;18.55;9.50;;;;;;;-139.48;100.00;61774.03;5052680;28;20060;-73
2022/03/12 01:04:16;;;;;;;16.05;9.93;;;;;;;-139.48;100.00;61774.03;5052451;28;20122;-72
2022/03/12 01:07:00;;;;;;;18.52;10.57;;;;;;;-139.48;100.00;61774.03;5052499;28;20381;-73
2022/03/12 01:09:44;;;;;;;17.27;10.48;;;;;;;-139.48;100.00;61774.03;5037256;28;20051;-72
2022/03/12 01:12:28;;;;;;;17.65;9.82;;;;;;;-139.48;100.00;61774.03;5037304;28;20051;-73
2022/03/12 01:15:12;;;;;;;17.80;10.55;;;;;;;-139.48;100.00;61774.03;5039972;28;20055;-74
2022/03/12 01:17:56;;;;;;;16.65;9.77;;;;;;;-139.48;100.00;61774.03;5055960;28;20136;-73
2022/03/12 01:20:40;;;;;;;14.82;9.88;;;;;;;-139.48;100.00;61774.03;5026772;28;20136;-73
2022/03/12 01:23:25;;;;;;;20.67;10.60;;;;;;;-139.48;100.00;61774.03;5056405;28;20044;-73
2022/03/12 01:26:10;;;;;;;23.00;9.38;;;;;;;-139.48;100.00;61774.03;5056106;28;20484;-73
2022/03/12 01:28:54;;;;;;;18.20;9.77;;;;;;;-139.48;100.00;61774.03;5040685;28;20052;-72
2022/03/12 01:31:38;;;;;;;20.15;9.27;;;;;;;-139.48;100.00;61774.03;5026666;28;20413;-73
2022/03/12 01:34:22;;;;;;;14.45;9.07;;;;;;;-139.48;100.00;61774.03;5055958;28;20047;-73
2022/03/12 01:37:06;;;;;;;16.40;8.93;;;;;;;-139.48;100.00;61774.03;5040781;28;20066;-73
2022/03/12 01:39:50;;;;;;;15.30;9.70;;;;;;;-139.48;100.00;61774.03;5055571;28;20102;-73
2022/03/12 01:42:34;;;;;;;21.33;10.20;;;;;;;-139.48;100.00;61774.03;5055810;28;20123;-73
2022/03/12 01:45:26;;;;;;;19.10;10.00;;;;;;;-139.48;100.00;61774.03;5055760;28;20052;-73
2022/03/12 01:48:11;;;;;;;16.63;9.48;;;;;;;-139.48;100.00;61774.03;5041365;28;20075;-73
2022/03/12 01:50:55;;;;;;;20.25;10.68;;;;;;;-139.48;100.00;61774.03;5055601;28;20094;-73
2022/03/12 01:53:39;;;;;;;22.27;9.98;;;;;;;-139.48;100.00;61774.03;5040358;28;20118;-71
2022/03/12 01:56:28;;;;;;;17.13;9.82;;;;;;;-139.48;100.00;61774.03;5040570;28;20122;-73
2022/03/12 01:59:12;;;;;;;17.55;9.82;;;;;;;-139.48;100.00;61774.03;5040366;28;20068;-73
2022/03/12 02:01:57;;;;;;;16.45;9.48;;;;;;;-139.48;100.00;61774.03;5055349;28;20055;-73
2022/03/12 02:04:50;;;;;;;18.55;10.13;;;;;;;-139.48;100.00;61774.03;5055167;28;20101;-73
2022/03/12 02:07:34;;;;;;;16.65;9.85;;;;;;;-139.48;100.00;61774.03;5040652;28;20125;-73
2022/03/12 02:10:20;;;;;;;16.00;9.35;;;;;;;-139.48;100.00;61774.03;5055013;28;20471;-72
2022/03/12 02:13:04;;;;;;;17.73;10.25;;;;;;;-139.48;100.00;61774.03;5040191;28;20055;-73
2022/03/12 02:15:47;;;;;;;15.10;8.77;;;;;;;-139.48;100.00;61774.03;5039836;28;20389;-73
2022/03/12 02:18:31;;;;;;;17.20;9.50;;;;;;;-139.48;100.00;61774.03;5055410;28;20389;-73
2022/03/12 02:21:29;;;;;;;14.57;9.23;;;;;;;-139.48;100.00;61774.03;5054764;28;20424;-73
2022/03/12 02:24:16;;;;;;;15.68;9.32;;;;;;;-139.48;100.00;61774.03;5039968;28;20174;-73
2022/03/12 02:27:02;;;;;;;18.02;9.40;;;;;;;-139.48;100.00;61774.03;5038557;28;20052;-73
2022/03/12 02:29:46;;;;;;;18.88;9.95;;;;;;;-139.48;100.00;61774.03;5054648;28;20052;-73
2022/03/12 02:32:30;;;;;;;22.38;9.68;;;;;;;-139.48;100.00;61774.03;5039696;28;20071;-73
2022/03/12 02:35:15;;;;;;;15.48;9.55;;;;;;;-139.48;100.00;61774.03;5039697;28;20194;-73
2022/03/12 02:37:59;;;;;;;18.00;10.10;;;;;;;-139.48;100.00;61774.03;5054415;28;20186;-74
2022/03/12 02:40:44;;;;;;;15.85;9.57;;;;;;;-139.48;100.00;61774.03;5039588;28;20132;-74
2022/03/12 02:43:28;;;;;;;20.20;9.80;;;;;;;-139.48;100.00;61774.03;5054663;28;20412;-73
2022/03/12 02:46:13;;;;;;;16.48;8.82;;;;;;;-139.48;100.00;61774.03;5054534;28;20467;-74
2022/03/12 02:48:57;;;;;;;18.77;9.73;;;;;;;-139.48;100.00;61774.03;5039166;28;20408;-72
2022/03/12 02:51:41;;;;;;;18.45;9.68;;;;;;;-139.48;100.00;61774.03;5039645;28;20132;-73
2022/03/12 02:54:25;;;;;;;16.83;8.35;;;;;;;-139.48;100.00;61774.03;5054456;28;20156;-73
2022/03/12 02:57:09;;;;;;;15.35;9.23;;;;;;;-139.48;100.00;61774.03;5054095;28;20048;-74
2022/03/12 03:00:00;;;;;;;17.65;9.77;;;;;;;-139.48;100.00;61774.03;5039404;28;20091;-73
2022/03/12 03:02:47;;;;;;;18.65;9.77;;;;;;;-139.48;100.00;61774.03;5039660;28;20052;-73
2022/03/12 03:05:44;;;;;;;19.58;10.23;;;;;;;-139.48;100.00;61774.03;5039327;28;20389;-73
2022/03/12 03:08:28;;;;;;;19.63;10.57;;;;;;;-139.48;100.00;61774.03;5039436;28;20039;-73
2022/03/12 03:11:16;;;;;;;14.05;8.88;;;;;;;-139.48;100.00;61774.03;5053795;28;20051;-73
2022/03/12 03:14:00;;;;;;;14.95;9.05;;;;;;;-139.48;100.00;61774.03;5039329;28;20052;-73
2022/03/12 03:16:46;;;;;;;22.25;9.63;;;;;;;-139.48;100.00;61774.03;5054213;28;20044;-73
2022/03/12 03:19:31;;;;;;;17.52;9.63;;;;;;;-139.48;100.00;61774.03;5053721;28;20140;-72
2022/03/12 03:22:15;;;;;;;17.98;9.60;;;;;;;-139.48;100.00;61774.03;5038729;28;20052;-73
2022/03/12 03:24:59;;;;;;;16.67;9.23;;;;;;;-139.48;100.00;61774.03;5053800;28;20052;-73
2022/03/12 03:27:43;;;;;;;17.52;8.60;;;;;;;-139.48;100.00;61774.03;5053681;28;20040;-73
2022/03/12 03:30:32;;;;;;;15.10;9.35;;;;;;;-139.48;100.00;61774.03;5053580;28;20051;-74
2022/03/12 03:33:21;;;;;;;17.92;9.82;;;;;;;-139.48;100.00;61774.03;5038543;28;20191;-72
2022/03/12 03:36:06;;;;;;;17.33;9.32;;;;;;;-139.48;100.00;61774.03;5038534;28;20056;-74
2022/03/12 03:41:44;;;;;;;12.23;8.57;;;;;;;-139.48;100.00;61774.03;4993070;28;20053;-76
2022/03/12 03:44:29;;;;;;;16.67;9.82;;;;;;;-139.48;100.00;61774.03;4965744;28;20516;-76
2022/03/12 03:47:14;;;;;;;15.70;8.73;;;;;;;-139.48;100.00;61774.03;4979955;28;20088;-76
2022/03/12 03:49:58;;;;;;;16.38;9.60;;;;;;;-139.48;100.00;61774.03;4979630;28;20116;-76
2022/03/12 03:52:43;;;;;;;21.60;10.40;;;;;;;-139.48;100.00;61774.03;4994653;28;20053;-75
2022/03/12 03:55:28;;;;;;;16.80;9.63;;;;;;;-139.48;100.00;61774.03;4980306;28;20513;-75
2022/03/12 03:58:12;;;;;;;15.73;9.27;;;;;;;-139.48;100.00;61774.03;4993123;28;20069;-76
2022/03/12 04:00:59;;;;;;;15.60;9.55;;;;;;;-139.48;100.00;61774.03;4979881;28;20402;-76
2022/03/12 04:03:48;;;;;;;17.83;10.20;;;;;;;-139.48;100.00;61774.03;4993810;28;20104;-76
2022/03/12 04:06:32;;;;;;;16.67;9.50;;;;;;;-139.48;100.00;61774.03;4993760;28;20124;-75
2022/03/12 04:09:16;;;;;;;16.40;9.23;;;;;;;-139.48;100.00;61774.03;4979322;28;20104;-76
2022/03/12 04:12:00;;;;;;;19.05;8.77;;;;;;;-139.48;100.00;61774.03;4978965;28;20065;-76
2022/03/12 04:14:44;;;;;;;20.65;9.45;;;;;;;-139.48;100.00;61774.03;4979010;28;20417;-76
2022/03/12 04:17:28;;;;;;;15.63;9.57;;;;;;;-139.48;100.00;61774.03;4978984;28;20100;-76
2022/03/12 04:20:13;;;;;;;17.88;9.45;;;;;;;-139.48;100.00;61774.03;4979076;28;20065;-76
2022/03/12 04:22:57;;;;;;;16.38;8.82;;;;;;;-139.48;100.00;61774.03;4993919;28;20061;-76
2022/03/12 04:25:41;;;;;;;14.88;9.55;;;;;;;-139.48;100.00;61774.03;4978881;28;20052;-76
2022/03/12 04:28:32;;;;;;;16.27;9.35;;;;;;;-139.48;100.00;61774.03;4993597;28;20101;-76
2022/03/12 04:31:16;;;;;;;16.73;9.88;;;;;;;-139.48;100.00;61774.03;4993507;28;20045;-76
2022/03/12 04:34:00;;;;;;;16.45;9.77;;;;;;;-139.48;100.00;61774.03;4978833;28;20133;-76
2022/03/12 04:36:44;;;;;;;15.68;9.32;;;;;;;-139.48;100.00;61774.03;4978730;28;20049;-76
2022/03/12 04:39:27;;;;;;;15.20;8.98;;;;;;;-139.48;100.00;61774.03;4993118;28;20136;-76
2022/03/12 04:42:11;;;;;;;15.18;8.82;;;;;;;-139.48;100.00;61774.03;4978985;28;20418;-76
2022/03/12 04:44:55;;;;;;;12.32;8.20;;;;;;;-139.48;100.00;61774.03;4978714;28;20078;-76
2022/03/12 04:47:43;;;;;;;16.35;8.85;;;;;;;-139.48;100.00;61774.03;4993443;28;20053;-76
2022/03/12 04:50:27;;;;;;;16.88;10.63;;;;;;;-139.48;100.00;61774.03;4996467;28;20053;-76
2022/03/12 04:53:12;;;;;;;16.92;9.43;;;;;;;-139.48;100.00;61774.03;4982705;28;20510;-76
2022/03/12 04:55:56;;;;;;;16.67;9.05;;;;;;;-139.48;100.00;61774.03;4982578;28;20050;-76
2022/03/12 04:58:40;;;;;;;16.67;8.98;;;;;;;-139.48;100.00;61774.03;4982394;28;20181;-76
2022/03/12 05:01:24;;;;;;;15.77;9.50;;;;;;;-139.48;100.00;61774.03;4982233;28;20053;-76
2022/03/12 05:04:09;;;;;;;16.98;9.23;;;;;;;-139.48;100.00;61774.03;4997565;28;20662;-76
2022/03/12 05:06:53;;;;;;;18.50;9.13;;;;;;;-139.48;100.00;61774.03;4982262;28;20522;-76
2022/03/12 05:09:37;;;;;;;20.67;10.18;;;;;;;-139.48;100.00;61774.03;4982294;28;20114;-76
2022/03/12 05:12:22;;;;;;;14.57;9.48;;;;;;;-139.48;100.00;61774.03;4982613;28;20101;-76
2022/03/12 05:15:09;;;;;;;16.40;9.93;;;;;;;-139.48;100.00;61774.03;4982155;28;20061;-76
2022/03/12 05:17:54;;;;;;;17.75;10.10;;;;;;;-139.48;100.00;61774.03;4996882;28;20112;-76
2022/03/12 05:20:43;;;;;;;18.77;10.60;;;;;;;-139.48;100.00;61774.03;4997180;28;20153;-76
2022/03/12 05:23:27;;;;;;;17.05;10.32;;;;;;;-139.48;100.00;61774.03;4982355;28;20136;-76
2022/03/12 05:26:11;;;;;;;13.30;9.05;;;;;;;-139.48;100.00;61774.03;4982440;28;20550;-76
2022/03/12 05:28:54;;;;;;;16.77;8.93;;;;;;;-139.48;100.00;61774.03;4982014;28;20053;-76
2022/03/12 05:31:38;;;;;;;16.55;9.50;;;;;;;-139.48;100.00;61774.03;4981748;28;20462;-76
2022/03/12 05:34:25;;;;;;;14.73;9.93;;;;;;;-139.48;100.00;61774.03;4996825;28;20112;-76
2022/03/12 05:37:10;;;;;;;16.15;9.38;;;;;;;-139.48;100.00;61774.03;4982260;28;20101;-76
2022/03/12 05:39:54;;;;;;;14.32;9.38;;;;;;;-139.48;100.00;61774.03;4981428;28;20069;-76
2022/03/12 05:42:39;;;;;;;20.10;9.45;;;;;;;-139.48;100.00;61774.03;4981633;28;20133;-76
2022/03/12 05:45:23;;;;;;;16.38;9.05;;;;;;;-139.48;100.00;61774.03;4996333;28;20053;-76
2022/03/12 05:48:08;;;;;;;14.55;9.43;;;;;;;-139.48;100.00;61774.03;4981589;28;20513;-76
2022/03/12 05:50:53;;;;;;;17.95;9.35;;;;;;;-139.48;100.00;61774.03;4981697;28;20077;-76
2022/03/12 05:53:37;;;;;;;15.70;9.40;;;;;;;-139.48;100.00;61774.03;4996165;28;20064;-75
2022/03/12 05:56:22;;;;;;;17.73;8.77;;;;;;;-139.48;100.00;61774.03;4967767;28;20437;-76
2022/03/12 05:59:09;;;;;;;17.20;9.80;;;;;;;-139.48;100.00;61774.03;4996058;28;20072;-76
2022/03/12 06:01:53;;;;;;;17.95;9.70;;;;;;;-139.48;100.00;61774.03;4981556;28;20517;-75
2022/03/12 06:04:37;;;;;;;18.45;9.50;;;;;;;-139.48;100.00;61774.03;4995913;28;20505;-75
2022/03/12 06:07:27;;;;;;;19.95;9.88;;;;;;;-139.48;100.00;61774.03;4996168;28;20053;-75
2022/03/12 06:10:13;;;;;;;20.00;9.68;;;;;;;-139.48;100.00;61774.03;4996752;28;20088;-76
2022/03/12 06:12:58;;;;;;;18.00;9.95;;;;;;;-139.48;100.00;61774.03;4981207;28;20461;-76
2022/03/12 06:15:42;;;;;;;19.02;10.07;;;;;;;-139.48;100.00;61774.03;4995729;28;20104;-76
2022/03/12 06:18:36;;;;;;;17.02;9.07;;;;;;;-139.48;100.00;61774.03;4967476;28;20046;-76
2022/03/12 06:21:21;;;;;;;15.93;9.60;;;;;;;-139.48;100.00;61774.03;4981034;28;20119;-76
2022/03/12 06:24:05;;;;;;;14.38;8.60;;;;;;;-139.48;100.00;61774.03;4995650;28;20541;-76
2022/03/12 06:26:49;;;;;;;18.25;9.50;;;;;;;-139.48;100.00;61774.03;4980998;28;20517;-76
2022/03/12 06:29:34;;;;;;;15.55;9.40;;;;;;;-139.48;100.00;61774.03;4995852;28;20073;-75
2022/03/12 06:32:18;;;;;;;15.95;9.32;;;;;;;-139.48;100.00;61774.03;4981109;28;20518;-76
2022/03/12 06:35:03;;;;;;;18.70;9.27;;;;;;;-139.48;100.00;61774.03;4995907;28;20080;-76
2022/03/12 06:37:48;;;;;;;18.02;9.18;;;;;;;-139.48;100.00;61774.03;4980699;28;20053;-76
2022/03/12 06:40:32;;;;;;;17.48;8.95;;;;;;;-139.48;100.00;61774.03;4980251;28;20054;-76
2022/03/12 06:43:19;;;;;;;15.60;9.35;;;;;;;-139.48;100.00;61774.03;4980978;28;20057;-76
2022/03/12 06:46:03;;;;;;;17.73;9.23;;;;;;;-139.48;100.00;61774.03;4981074;28;20053;-76
2022/03/12 06:48:47;;;;;;;20.50;9.88;;;;;;;-139.48;100.00;61774.03;4995366;28;20049;-76
2022/03/12 06:51:33;;;;;;;20.38;9.98;;;;;;;-139.48;100.00;61774.03;4980340;28;20052;-76
2022/03/12 06:54:17;;;;;;;18.48;9.77;;;;;;;-139.48;100.00;61774.03;4980477;28;20053;-76
2022/03/12 06:57:03;;;;;;;13.80;8.48;;;;;;;-139.48;100.00;61774.03;4995213;28;20112;-76
2022/03/12 06:59:48;;;;;;;18.90;9.90;;;;;;;-139.48;100.00;61774.03;4995036;28;20057;-76
2022/03/12 07:02:32;;;;;;;14.60;9.88;;;;;;;-139.48;100.00;61774.03;4980310;28;20089;-76
2022/03/12 07:05:15;;;;;;;17.40;10.27;;;;;;;-139.48;100.00;61774.03;4995034;28;20081;-76
2022/03/12 07:07:59;;;;;;;18.33;10.32;;;;;;;-139.48;100.00;61774.03;4979964;28;20093;-76
2022/03/12 07:10:43;;;;;;;15.82;9.40;;;;;;;-139.48;100.00;61774.03;4979878;28;20069;-75
2022/03/12 07:13:28;;;;;;;15.80;9.32;;;;;;;-139.48;100.00;61774.03;4994316;28;20072;-76
2022/03/12 07:16:12;;;;;;;17.73;8.90;;;;;;;-139.48;100.00;61774.03;4980173;28;20072;-76
2022/03/12 07:18:57;;;;;;;14.70;9.02;;;;;;;-139.48;100.00;61774.03;4979816;28;20121;-76
2022/03/12 07:21:40;;;;;;;19.45;9.38;;;;;;;-139.48;100.00;61774.03;4979990;28;20053;-76
2022/03/12 07:24:24;;;;;;;14.73;9.20;;;;;;;-139.48;100.00;61774.03;4979845;28;20088;-76
2022/03/12 07:27:08;;;;;;;15.30;9.30;;;;;;;-139.48;100.00;61774.03;4994616;28;20624;-75
2022/03/12 07:29:53;;;;;;;16.77;9.82;;;;;;;-139.48;100.00;61774.03;4994663;28;20134;-76
2022/03/12 07:32:39;;;;;;;14.60;9.57;;;;;;;-139.48;100.00;61774.03;4979738;28;20132;-76
2022/03/12 07:35:23;;;;;;;20.88;11.43;;;;;;;-139.48;100.00;61774.03;4979864;28;20057;-75
2022/03/12 07:38:07;;;;;;;17.98;10.40;;;;;;;-139.48;100.00;61774.03;4979608;28;20582;-76
2022/03/12 07:40:51;;;;;;;16.45;8.85;;;;;;;-139.48;100.00;61774.03;4979319;28;20501;-76
2022/03/12 07:43:34;;;;;;;17.65;9.85;;;;;;;-139.48;100.00;61774.03;4965778;28;20569;-76
2022/03/12 07:46:19;;;;;;;15.23;9.75;;;;;;;-139.48;100.00;61774.03;4979528;28;20501;-76
2022/03/12 07:49:06;;;;;;;15.27;9.32;;;;;;;-139.48;100.00;61774.03;4994334;28;20049;-76
2022/03/12 07:51:50;;;;;;;19.45;10.38;;;;;;;-139.48;100.00;61774.03;4966185;28;20101;-76
2022/03/12 07:54:34;;;;;;;17.23;10.13;;;;;;;-139.48;100.00;61774.03;4979190;28;20120;-76
2022/03/12 07:57:19;;;;;;;16.00;10.35;;;;;;;-139.48;100.00;61774.03;4993766;28;20057;-76
2022/03/12 08:00:06;;;;;;;19.10;9.40;;;;;;;-139.48;100.00;61774.03;4994051;28;20128;-76
2022/03/12 08:02:50;;;;;;;18.83;9.63;;;;;;;-139.48;100.00;61774.03;4979279;28;20053;-76
2022/03/12 08:05:35;;;;;;;16.10;10.15;;;;;;;-139.48;100.00;61774.03;4993977;28;20406;-76
2022/03/12 08:08:19;;;;;;;19.73;10.30;;;;;;;-139.48;100.00;61774.03;4965318;28;20159;-75
2022/03/12 08:14:08;;;;;;;20.38;11.65;;;;;;;-139.48;100.00;61774.03;4982051;28;20537;-76
2022/03/12 08:16:54;;;;;;;17.30;10.00;;;;;;;-139.48;100.00;61774.03;4993739;28;20172;-76
2022/03/12 08:19:38;;;;;;;16.05;9.90;;;;;;;-139.48;100.00;61774.03;4978898;28;20045;-76
2022/03/12 08:22:22;;;;;;;22.13;9.30;;;;;;;-139.48;100.00;61774.03;4978886;28;20104;-76
2022/03/12 08:25:08;;;;;;;16.70;10.07;;;;;;;-139.48;100.00;61774.03;4978888;28;20069;-76
2022/03/12 08:27:52;;;;;;;16.45;10.18;;;;;;;-139.48;100.00;61774.03;4978651;28;20153;-76
2022/03/12 08:30:36;;;;;;;17.33;10.23;;;;;;;-139.48;100.00;61774.03;4993219;28;20053;-76
2022/03/12 08:33:20;;;;;;;18.15;11.38;;;;;;;-139.48;100.00;61774.03;4965282;28;20489;-76
2022/03/12 08:36:05;;;;;;;22.45;11.45;;;;;;;-139.48;100.00;61774.03;4978709;28;20586;-76
2022/03/12 08:38:49;;;;;;;14.35;9.48;;;;;;;-139.48;100.00;61774.03;4978671;28;20153;-77
2022/03/12 08:41:34;;;;;;;17.95;12.82;;;;;;;-139.48;100.00;61774.03;4978759;28;20122;-76
2022/03/12 08:44:18;;;;;;;16.98;10.48;;;;;;;-139.48;100.00;61774.03;4978894;28;20524;-76
2022/03/12 08:47:03;;;;;;;17.25;10.63;;;;;;;-139.48;100.00;61774.03;4978587;28;20048;-76
2022/03/12 08:49:48;;;;;;;15.40;10.52;;;;;;;-139.48;100.00;61774.03;4978311;28;20097;-76
2022/03/12 08:52:32;;;;;;;19.42;11.38;;;;;;;-139.48;100.00;61774.03;4978870;28;20438;-76
2022/03/12 08:55:16;;;;;;;19.65;12.13;;;;;;;-139.48;100.00;61774.03;4978933;28;20045;-76
2022/03/12 08:58:00;;;;;;;16.67;11.10;;;;;;;-139.48;100.00;61774.03;4978504;28;20145;-76
2022/03/12 09:00:44;;;;;;;15.95;10.57;;;;;;;-139.48;100.00;61774.03;4993576;28;20142;-76
2022/03/12 09:03:30;;;;;;;17.88;10.65;;;;;;;-139.48;100.00;61774.03;4993969;28;20061;-76
2022/03/12 09:06:15;;;;;;;18.38;10.73;;;;;;;-139.48;100.00;61774.03;4965425;28;20053;-76
2022/03/12 09:09:00;;;;;;;16.13;10.82;;;;;;;-139.48;100.00;61774.03;4993747;28;20084;-76
2022/03/12 09:11:44;;;;;;;20.77;11.05;;;;;;;-139.48;100.00;61774.03;4978750;28;20092;-76
2022/03/12 09:14:28;;;;;;;23.90;10.85;;;;;;;-139.48;100.00;61774.03;4978822;28;20052;-76
2022/03/12 09:17:12;;;;;;;16.35;11.10;;;;;;;-139.48;100.00;61774.03;4979156;28;20101;-76
2022/03/12 09:19:56;;;;;;;16.33;10.20;;;;;;;-139.48;100.00;61774.03;4979023;28;20112;-76
2022/03/12 09:22:41;;;;;;;16.48;10.57;;;;;;;-139.48;100.00;61774.03;4993503;28;20069;-76
2022/03/12 09:25:25;;;;;;;19.48;11.68;;;;;;;-139.48;100.00;61774.03;4992917;28;20454;-76
2022/03/12 09:28:09;;;;;;;17.58;11.45;;;;;;;-139.48;100.00;61774.03;4993095;28;20489;-76
2022/03/12 09:30:53;;;;;;;19.00;11.18;;;;;;;-139.48;100.00;61774.03;4978022;28;20057;-76
2022/03/12 09:33:38;;;;;;;17.85;11.55;;;;;;;-139.48;100.00;61774.03;4992914;28;20434;-75
2022/03/12 09:36:22;;;;;;;18.50;11.55;;;;;;;-139.48;100.00;61774.03;4996230;28;20053;-76
2022/03/12 09:39:06;;;;;;;20.80;11.57;;;;;;;-139.48;100.00;61774.03;4996731;28;20053;-72
2022/03/12 09:41:50;;;;;;;15.68;11.20;;;;;;;-139.48;100.00;61774.03;5024835;22;20194;-74
2022/03/12 09:44:34;;;;;;;20.48;11.00;;;;;;;-139.48;100.00;61774.03;5036035;28;20107;-75
2022/03/12 09:47:18;;;;;;;17.80;10.75;;;;;;;-139.48;100.00;61774.03;5021075;28;20064;-74
2022/03/12 09:50:04;;;;;;;18.85;11.85;;;;;;;-139.48;100.00;61774.03;5035728;28;20084;-75
2022/03/12 09:52:49;;;;;;;22.27;11.55;;;;;;;-139.48;100.00;61774.03;5020670;28;20120;-75
2022/03/12 09:55:34;;;;;;;21.98;11.93;;;;;;;-139.48;100.00;61774.03;5020920;28;20090;-75
2022/03/12 09:58:18;;;;;;;18.20;12.73;;;;;;;-139.48;100.00;61774.03;5020700;28;20068;-75
2022/03/12 10:01:03;;;;;;;21.65;12.20;;;;;;;-139.48;100.00;61774.03;5036187;28;20158;-75
2022/03/12 10:03:46;;;;;;;19.52;12.90;;;;;;;-139.48;100.00;61774.03;5020693;28;20047;-74
2022/03/12 10:06:31;;;;;;;;;;;;;;;-139.48;100.00;61774.03;5036050;28;20053;-75
2022/03/12 10:09:15;;;;;;;25.08;19.58;;;;;;;-139.48;100.00;61774.03;5035463;28;19946;-74
2022/03/12 10:11:59;;;;;;;;;;;;;;;-139.48;100.00;61774.03;5035705;28;20417;-75
2022/03/12 10:14:43;;;;;;;22.58;18.27;;;;;;;-139.48;100.00;61774.03;5020284;28;20261;-74
2022/03/12 10:17:31;;;;;;;;;;;;;;;-139.48;100.00;61774.03;5036034;28;20053;-75
2022/03/12 10:20:15;;;;;;;17.67;13.75;;;;;;;-139.48;100.00;61774.03;5021078;28;19919;-75
2022/03/12 10:23:00;;;;;;;20.13;13.23;;;;;;;-139.48;100.00;61774.03;5020408;28;20107;-75
2022/03/12 10:25:45;;;;;;;17.83;13.85;;;;;;;-139.48;100.00;61774.03;5020215;28;20052;-74
2022/03/12 10:28:34;;;;;;;17.27;13.40;;;;;;;-139.48;100.00;61774.03;5020355;28;20120;-75
2022/03/12 10:31:19;;;;;;;19.77;14.27;;;;;;;-139.48;100.00;61774.03;5020447;28;20072;-75
2022/03/12 10:34:21;;;;;;;18.60;13.98;;;;;;;-139.48;100.00;61774.03;5035219;28;20052;-75
2022/03/12 10:37:09;;;;;;;20.80;13.75;;;;;;;-139.48;100.00;61774.03;5020224;28;20128;-75
2022/03/12 10:40:25;;;;;;;19.38;14.50;;;;;;;-139.48;100.00;61774.03;5034871;28;20125;-75
2022/03/12 10:43:15;;;;;;;19.92;14.02;;;;;;;-139.48;100.00;61774.03;5020257;28;20524;-75
2022/03/12 10:46:01;;;;;;;20.45;14.00;;;;;;;-139.48;100.00;61774.03;5021087;28;20044;-75
2022/03/12 10:48:47;;;;;;;16.08;13.80;;;;;;;-139.48;100.00;61774.03;5020227;28;20092;-75
2022/03/12 10:51:35;;;;;;;19.25;15.27;;;;;;;-139.48;100.00;61774.03;5034737;28;20052;-74
2022/03/12 10:54:20;;;;;;;21.33;14.95;;;;;;;-139.48;100.00;61774.03;5019626;28;20144;-75
2022/03/12 10:57:05;;;;;;;16.88;14.25;;;;;;;-139.48;100.00;61774.03;5034795;28;20048;-75
2022/03/12 10:59:54;;;;;;;18.23;14.45;;;;;;;-139.48;100.00;61774.03;5019616;28;20099;-75
2022/03/12 11:02:38;;;;;;;19.38;15.85;;;;;;;-139.48;100.00;61774.03;5005995;28;20110;-75
2022/03/12 11:05:25;;;;;;;19.25;15.45;;;;;;;-139.48;100.00;61774.03;5034486;28;20048;-75
2022/03/12 11:08:21;;;;;;;22.20;15.43;;;;;;;-139.48;100.00;61774.03;5019503;28;20056;-75
2022/03/12 11:11:12;;;;;;;18.25;15.48;;;;;;;-139.48;100.00;61774.03;5019754;28;20142;-75
2022/03/12 11:13:58;;;;;;;21.20;16.05;;;;;;;-139.48;100.00;61774.03;5034314;28;20049;-75
2022/03/12 11:16:49;;;;;;;19.75;15.55;;;;;;;-139.48;100.00;61774.03;5019334;28;20044;-75
2022/03/12 11:19:41;;;;;;;22.45;15.77;;;;;;;-139.48;100.00;61774.03;5019300;28;20111;-75
2022/03/12 11:22:25;;;;;;;21.70;15.80;;;;;;;-139.48;100.00;61774.03;5006038;28;20122;-74
2022/03/12 11:25:11;;;;;;;19.92;15.00;;;;;;;-139.48;100.00;61774.03;5034100;28;20044;-74
2022/03/12 11:27:56;;;;;;;19.70;14.68;;;;;;;-139.48;100.00;61774.03;5019049;28;20179;-75
2022/03/12 11:30:40;;;;;;;24.95;16.50;;;;;;;-139.48;100.00;61774.03;5018885;28;20052;-74
2022/03/12 11:33:25;;;;;;;;;;;;;;;-139.48;100.00;61774.03;5034385;28;20059;-75
2022/03/12 11:36:12;;;;;;;;;;;;;;;-139.48;100.00;61774.03;5019346;28;19976;-75
2022/03/12 11:38:56;;;;;;;19.67;14.05;;;;;;;-139.48;100.00;61774.03;5033922;28;19920;-75
2022/03/12 11:41:40;;;;;;;22.17;14.30;;;;;;;-139.48;100.00;61774.03;5018553;28;20052;-74
2022/03/12 11:44:26;;;;;;;20.92;15.13;;;;;;;-139.48;100.00;61774.03;5033566;28;20052;-75
2022/03/12 11:47:10;;;;;;;18.77;13.38;;;;;;;-139.48;100.00;61774.03;5018726;28;20153;-75
2022/03/12 11:49:56;;;;;;;16.08;12.80;;;;;;;-139.48;100.00;61774.03;5018752;28;20049;-74
2022/03/12 11:52:41;;;;;;;19.40;13.45;;;;;;;-139.48;100.00;61774.03;5018458;28;20152;-75
2022/03/12 11:55:27;;;;;;;41.53;31.05;;;;;;;-139.48;100.00;61774.03;5018634;28;20052;-75
2022/03/12 11:58:11;;;;;;;22.40;13.50;;;;;;;-139.48;100.00;61774.03;5033161;28;20050;-75
2022/03/12 12:00:54;;;;;;;18.25;13.48;;;;;;;-139.48;100.00;61774.03;5033366;28;20053;-75
2022/03/12 12:03:38;;;;;;;18.17;13.60;;;;;;;-139.48;100.00;61774.03;5004629;28;20079;-75
2022/03/12 12:06:22;;;;;;;19.35;14.40;;;;;;;-139.48;100.00;61774.03;5018322;28;20057;-74
2022/03/12 12:09:07;;;;;;;16.98;13.13;;;;;;;-139.48;100.00;61774.03;5018466;28;20052;-75
2022/03/12 12:11:53;;;;;;;17.27;12.35;;;;;;;-139.48;100.00;61774.03;5018269;28;20098;-75
2022/03/12 12:14:37;;;;;;;17.05;12.88;;;;;;;-139.48;100.00;61774.03;5033357;28;20080;-75
2022/03/12 12:17:21;;;;;;;15.32;12.68;;;;;;;-139.48;100.00;61774.03;5033059;28;20047;-75
2022/03/12 12:20:06;;;;;;;18.02;13.20;;;;;;;-139.48;100.00;61774.03;5017948;28;20052;-75
2022/03/12 12:22:50;;;;;;;17.65;13.18;;;;;;;-139.48;100.00;61774.03;5032886;28;20056;-75
2022/03/12 12:25:36;;;;;;;18.73;12.60;;;;;;;-139.48;100.00;61774.03;5018399;28;20401;-75